KMGC/MGC METAR and TAF weather

Enter ICAO airport designator
Station Type Date Time Source
KMGC METAR 2021/02/28 04:15 UTC NOAA

KMGC 280415Z AUTO 14005KT 10SM CLR 05/01 A3006 RMK AO2


Station Type Date Time Source
KMGC Decoded METAR 2021/02/28 04:15 UTC NOAA

Station name not available
Feb 27, 2021 - 11:15 PM EST / 2021.02.28 0415 UTC
Wind: from the SE (140 degrees) at 6 MPH (5 KT):0
Visibility: 10 mile(s):0
Sky conditions: clear
Temperature: 41 F (5 C)
Dew Point: 33 F (1 C)
Relative Humidity: 75%
Pressure (altimeter): 30.06 in. Hg (1017 hPa)
ob: KMGC 280415Z AUTO 14005KT 10SM CLR 05/01 A3006 RMK AO2
cycle: 4

Station Type Date Time Source
KMGC TAF UTC NOAA

Error!

Example: see airport list